Terminal Aerodrome Forecast
Issued by NWS

Current Version | Previous Version | Graphics & Text | Print | Product List | Glossary On
Versions: 1 2 3 4 5 6 7 8 9 10 11 12 13 14 15 16 17 18 19 20 21 22 23
000
FTUS41 KPBZ 221300 AAA
TAFHLG
TAF AMD
KHLG 221331Z 2214/2312 34008KT P6SM OVC012
      TEMPO 2214/2216 OVC009
     FM221700 33008KT P6SM BKN025
     FM230900 30005KT P6SM SCT025=

USA.gov is the U.S. government's official web portal to all federal, state and local government web resources and services.